Time;durP1;ratioP1;P1;durP2;ratioP2;P2;SDS_P1;SDS_P2;PMS_P1;PMS_P2;Temp;Humidity;BMP_temperature;BMP_pressure;BME280_temperature;BME280_humidity;BME280_pressure;Samples;Min_cycle;Max_cycle;Signal;HPM_P1;HPM_P2
2022/09/28 00:00:19;;;;;;;1.85;1.75;;;9.50;99.90;;;;;;5081986;28;20222;-81
2022/09/28 00:02:48;;;;;;;1.70;1.60;;;9.50;99.90;;;;;;5080938;28;20207;-82
2022/09/28 00:05:15;;;;;;;1.85;1.73;;;9.50;99.90;;;;;;5081262;28;20566;-81
2022/09/28 00:07:42;;;;;;;1.70;1.60;;;9.60;99.90;;;;;;5081750;28;20211;-81
2022/09/28 00:10:09;;;;;;;1.58;1.48;;;9.60;99.90;;;;;;5081886;28;20581;-81
2022/09/28 00:12:36;;;;;;;1.45;1.20;;;9.50;99.90;;;;;;5081826;28;20202;-81
2022/09/28 00:15:03;;;;;;;1.20;1.13;;;9.50;99.90;;;;;;5081307;28;20223;-81
2022/09/28 00:17:30;;;;;;;1.02;1.02;;;9.50;99.90;;;;;;5081088;28;20203;-78
2022/09/28 00:19:58;;;;;;;1.40;1.40;;;9.60;99.90;;;;;;5080890;28;20222;-81
2022/09/28 00:22:25;;;;;;;1.02;1.02;;;9.50;99.90;;;;;;5081402;28;20557;-81
2022/09/28 00:24:51;;;;;;;1.08;1.08;;;9.50;99.90;;;;;;5081175;28;20222;-81
2022/09/28 00:27:18;;;;;;;1.83;1.73;;;9.50;99.90;;;;;;5081874;28;20688;-81
2022/09/28 00:29:45;;;;;;;1.58;1.48;;;9.40;99.90;;;;;;5080671;28;20451;-81
2022/09/28 00:32:14;;;;;;;1.48;1.38;;;9.40;99.90;;;;;;5081479;28;20481;-81
2022/09/28 00:34:44;;;;;;;1.20;1.10;;;9.50;99.90;;;;;;5080781;28;20228;-82
2022/09/28 00:37:13;;;;;;;1.25;1.17;;;9.40;99.90;;;;;;5079624;28;20232;-80
2022/09/28 00:39:41;;;;;;;1.42;1.33;;;9.30;99.90;;;;;;5076204;28;20202;-80
2022/09/28 00:42:12;;;;;;;1.48;1.38;;;9.30;99.90;;;;;;5075837;28;20272;-81
2022/09/28 00:44:47;;;;;;;1.40;1.30;;;9.30;99.90;;;;;;5076173;28;20297;-81
2022/09/28 00:47:45;;;;;;;2.45;1.50;;;9.40;99.90;;;;;;5076173;28;20215;-81
2022/09/28 00:50:24;;;;;;;0.90;0.90;;;9.40;99.90;;;;;;5074910;28;20210;-81
2022/09/28 00:52:56;;;;;;;1.10;1.08;;;9.40;99.90;;;;;;5075997;28;20684;-81
2022/09/28 00:55:30;;;;;;;1.30;0.90;;;9.40;99.90;;;;;;5075928;28;20227;-80
2022/09/28 00:58:00;;;;;;;1.60;1.20;;;9.40;99.90;;;;;;5074924;28;20225;-79
2022/09/28 01:00:27;;;;;;;1.73;1.20;;;9.50;99.90;;;;;;5069974;28;20482;-80
2022/09/28 01:02:55;;;;;;;1.07;0.97;;;9.50;99.90;;;;;;5075153;28;20458;-80
2022/09/28 01:05:23;;;;;;;4.90;1.27;;;9.50;99.90;;;;;;5120054;22;20486;-83
2022/09/28 01:07:51;;;;;;;1.63;1.10;;;9.60;99.90;;;;;;5062041;28;20211;-83
2022/09/28 01:10:19;;;;;;;1.30;1.20;;;9.70;99.90;;;;;;5061175;28;20220;-83
2022/09/28 01:12:46;;;;;;;1.58;1.20;;;9.60;99.90;;;;;;5061217;28;20206;-83
2022/09/28 01:15:14;;;;;;;3.30;1.40;;;9.60;99.90;;;;;;5061738;28;20643;-83
2022/09/28 01:18:01;;;;;;;1.40;0.70;;;9.60;99.90;;;;;;5061453;28;20215;-83
2022/09/28 01:20:41;;;;;;;1.80;1.70;;;9.70;99.90;;;;;;5061807;28;20482;-81
2022/09/28 01:23:24;;;;;;;5.27;1.70;;;9.60;99.90;;;;;;5061955;28;20588;-82
2022/09/28 01:25:58;;;;;;;3.33;1.10;;;9.70;99.90;;;;;;5061299;28;20473;-82
2022/09/28 01:28:28;;;;;;;1.77;0.93;;;9.60;99.90;;;;;;5060247;28;20461;-83
2022/09/28 01:31:03;;;;;;;1.90;0.77;;;9.70;99.90;;;;;;5061232;28;20454;-83
2022/09/28 01:33:37;;;;;;;1.43;1.33;;;9.70;99.90;;;;;;5060887;28;20450;-82
2022/09/28 01:36:10;;;;;;;0.88;0.88;;;9.60;99.90;;;;;;5061066;28;20469;-82
2022/09/28 01:38:41;;;;;;;2.00;1.33;;;9.50;99.90;;;;;;5060522;28;20737;-82
2022/09/28 01:41:09;;;;;;;1.75;1.15;;;9.60;99.90;;;;;;5060871;28;20512;-81
2022/09/28 01:43:41;;;;;;;4.95;1.60;;;9.60;99.90;;;;;;5061741;28;20222;-81
2022/09/28 01:46:13;;;;;;;5.15;2.17;;;9.70;99.90;;;;;;5060849;28;20226;-83
2022/09/28 01:48:45;;;;;;;1.30;1.20;;;9.70;99.90;;;;;;5060870;28;20211;-83
2022/09/28 01:51:17;;;;;;;1.75;1.20;;;9.70;99.90;;;;;;5059973;28;20543;-83
2022/09/28 01:53:49;;;;;;;3.70;1.58;;;9.80;99.90;;;;;;5060689;28;20215;-83
2022/09/28 01:56:20;;;;;;;4.20;2.17;;;9.80;99.90;;;;;;5057882;28;20228;-83
2022/09/28 01:58:51;;;;;;;3.13;1.50;;;9.90;99.90;;;;;;5060422;28;20212;-83
2022/09/28 02:01:24;;;;;;;2.10;1.47;;;9.90;99.90;;;;;;5056055;28;20228;-83
2022/09/28 02:03:56;;;;;;;2.33;1.70;;;9.90;99.90;;;;;;5060551;28;20451;-83
2022/09/28 02:06:27;;;;;;;3.80;1.10;;;9.80;99.90;;;;;;5060031;28;20479;-82
2022/09/28 02:08:59;;;;;;;4.93;1.53;;;9.80;99.90;;;;;;5059826;28;20460;-83
2022/09/28 02:11:27;;;;;;;1.75;1.38;;;9.90;99.90;;;;;;5060504;28;20462;-83
2022/09/28 02:14:00;;;;;;;2.05;1.55;;;10.00;99.90;;;;;;5060664;28;20248;-83
2022/09/28 02:16:33;;;;;;;1.60;1.50;;;10.00;99.90;;;;;;5060268;28;20228;-82
2022/09/28 02:19:00;;;;;;;1.37;1.10;;;10.00;99.90;;;;;;5060373;28;20851;-83
2022/09/28 02:21:33;;;;;;;2.53;1.50;;;10.00;99.90;;;;;;5059838;28;20477;-82
2022/09/28 02:24:03;;;;;;;1.87;1.67;;;10.00;99.90;;;;;;5055196;28;20457;-82
2022/09/28 02:26:35;;;;;;;5.65;1.70;;;10.00;99.90;;;;;;5059508;28;20474;-83
2022/09/28 02:29:03;;;;;;;3.67;1.73;;;9.90;99.90;;;;;;5059765;28;20196;-82
2022/09/28 02:31:31;;;;;;;4.03;2.37;;;9.90;99.90;;;;;;5059304;28;20450;-83
2022/09/28 02:33:58;;;;;;;1.80;1.40;;;9.90;99.90;;;;;;5058760;28;20817;-82
2022/09/28 02:36:26;;;;;;;1.85;1.52;;;10.00;99.90;;;;;;5057181;28;21014;-83
2022/09/28 02:38:53;;;;;;;1.73;1.30;;;10.10;99.90;;;;;;5057453;28;20195;-83
2022/09/28 02:41:30;;;;;;;2.33;2.13;;;10.00;99.90;;;;;;5057439;28;20494;-82
2022/09/28 02:44:07;;;;;;;2.20;1.63;;;10.00;99.90;;;;;;5057648;28;20743;-83
2022/09/28 02:46:42;;;;;;;1.73;1.60;;;10.10;99.90;;;;;;5058425;28;20468;-81
2022/09/28 02:49:21;;;;;;;2.63;1.57;;;10.10;99.90;;;;;;5058488;28;20457;-83
2022/09/28 02:52:13;;;;;;;2.13;1.05;;;10.10;99.90;;;;;;5046895;28;20521;-81
2022/09/28 02:55:07;;;;;;;1.50;1.40;;;10.00;99.90;;;;;;5057778;28;20230;-83
2022/09/28 02:57:47;;;;;;;2.88;1.80;;;10.00;99.90;;;;;;5040561;28;20218;-82
2022/09/28 03:00:19;;;;;;;2.87;1.47;;;10.00;99.90;;;;;;5058336;28;20222;-82
2022/09/28 03:02:57;;;;;;;1.43;1.33;;;10.00;99.90;;;;;;5057838;28;20488;-82
2022/09/28 03:05:34;;;;;;;1.45;1.35;;;10.00;99.90;;;;;;5054216;28;20478;-83
2022/09/28 03:08:03;;;;;;;2.63;1.37;;;10.20;99.90;;;;;;5057525;28;20213;-82
2022/09/28 03:10:37;;;;;;;4.40;1.67;;;10.20;99.90;;;;;;5058148;28;20454;-83
2022/09/28 03:13:05;;;;;;;4.10;1.63;;;10.20;99.90;;;;;;5057835;28;20460;-82
2022/09/28 03:15:35;;;;;;;2.97;2.13;;;10.30;99.90;;;;;;5057278;28;20497;-82
2022/09/28 03:18:02;;;;;;;3.10;1.57;;;10.20;99.90;;;;;;5057473;28;20454;-83
2022/09/28 03:20:30;;;;;;;1.43;1.33;;;10.10;99.90;;;;;;5057858;28;20861;-83
2022/09/28 03:22:57;;;;;;;3.03;2.83;;;10.00;99.90;;;;;;5058000;28;20491;-81
2022/09/28 03:25:24;;;;;;;3.80;2.07;;;10.10;99.90;;;;;;5057908;28;21014;-83
2022/09/28 03:27:50;;;;;;;2.47;1.25;;;10.10;99.90;;;;;;5057730;28;20451;-82
2022/09/28 03:30:17;;;;;;;3.63;1.23;;;10.00;99.90;;;;;;5057317;28;20204;-82
2022/09/28 03:32:45;;;;;;;1.70;1.60;;;10.00;99.90;;;;;;5057687;28;20461;-82
2022/09/28 03:35:12;;;;;;;2.47;1.30;;;9.90;99.90;;;;;;5057232;28;20470;-82
2022/09/28 03:37:39;;;;;;;2.33;1.40;;;10.00;99.90;;;;;;5058092;28;20448;-81
2022/09/28 03:40:06;;;;;;;1.33;1.23;;;9.90;99.90;;;;;;5057695;28;20458;-83
2022/09/28 03:42:36;;;;;;;2.10;1.40;;;9.90;99.90;;;;;;5056814;28;20220;-82
2022/09/28 03:45:03;;;;;;;2.10;1.80;;;9.90;99.90;;;;;;5057377;28;20468;-83
2022/09/28 03:47:29;;;;;;;3.63;1.60;;;10.00;99.90;;;;;;5057406;28;20458;-82
2022/09/28 03:49:58;;;;;;;1.67;1.42;;;10.00;99.90;;;;;;5057315;28;20457;-83
2022/09/28 03:52:25;;;;;;;4.03;1.90;;;10.00;99.90;;;;;;5057279;28;20245;-83
2022/09/28 03:54:51;;;;;;;1.20;1.08;;;10.00;99.90;;;;;;5057083;28;20450;-83
2022/09/28 03:57:18;;;;;;;5.40;1.73;;;9.90;99.90;;;;;;5057556;28;20197;-82
2022/09/28 03:59:45;;;;;;;2.55;1.42;;;9.90;99.90;;;;;;5057156;28;20450;-82
2022/09/28 04:02:11;;;;;;;5.50;1.65;;;10.00;99.90;;;;;;5056408;28;20224;-81
2022/09/28 04:04:38;;;;;;;1.43;1.33;;;10.00;99.90;;;;;;5057609;28;20218;-82
2022/09/28 04:07:06;;;;;;;2.70;1.43;;;10.00;99.90;;;;;;5056649;28;20481;-82
2022/09/28 04:09:33;;;;;;;2.13;1.77;;;10.00;99.90;;;;;;5056053;28;20467;-82
2022/09/28 04:12:00;;;;;;;3.30;1.23;;;10.00;99.90;;;;;;5058415;28;20215;-83
2022/09/28 04:14:26;;;;;;;4.80;1.57;;;10.10;99.90;;;;;;5058650;28;20457;-83
2022/09/28 04:16:54;;;;;;;4.30;1.45;;;9.80;99.90;;;;;;5058243;28;20479;-83
2022/09/28 04:19:21;;;;;;;2.10;1.45;;;9.70;99.90;;;;;;5057855;28;20198;-83
2022/09/28 04:21:49;;;;;;;1.17;1.08;;;9.60;99.90;;;;;;5058041;28;20241;-82
2022/09/28 04:24:19;;;;;;;2.00;1.02;;;9.50;99.90;;;;;;5059831;28;20414;-83
2022/09/28 04:26:45;;;;;;;1.95;1.40;;;9.50;99.90;;;;;;5061500;28;20228;-83
2022/09/28 04:29:14;;;;;;;0.90;0.80;;;9.40;99.90;;;;;;5060948;28;20673;-83
2022/09/28 04:31:43;;;;;;;2.70;1.20;;;9.30;99.90;;;;;;5061833;28;20238;-84
2022/09/28 04:34:10;;;;;;;1.73;1.40;;;9.20;99.90;;;;;;5062206;28;20461;-83
2022/09/28 04:36:37;;;;;;;1.92;1.02;;;9.20;99.90;;;;;;5062386;28;20217;-83
2022/09/28 04:39:04;;;;;;;1.07;1.07;;;9.20;99.90;;;;;;5060830;28;20587;-83
2022/09/28 04:41:32;;;;;;;1.05;1.05;;;9.20;99.90;;;;;;5041553;28;20483;-84
2022/09/28 04:43:59;;;;;;;1.85;0.70;;;9.30;99.90;;;;;;5058488;28;20205;-82
2022/09/28 04:46:26;;;;;;;2.58;0.80;;;9.30;99.90;;;;;;5061521;28;20215;-83
2022/09/28 04:48:52;;;;;;;1.00;0.73;;;9.30;99.90;;;;;;5061171;28;20195;-83
2022/09/28 04:51:19;;;;;;;1.13;1.10;;;9.20;99.90;;;;;;5061423;28;20205;-81
2022/09/28 04:53:46;;;;;;;0.88;0.88;;;9.10;99.90;;;;;;5061024;28;20455;-80
2022/09/28 04:56:18;;;;;;;1.75;1.17;;;9.10;99.90;;;;;;5061036;28;20220;-83
2022/09/28 04:58:46;;;;;;;2.03;0.90;;;9.00;99.90;;;;;;5061701;28;20206;-83
2022/09/28 05:01:14;;;;;;;2.42;1.00;;;9.00;99.90;;;;;;5060908;28;20210;-83
2022/09/28 05:03:41;;;;;;;1.17;1.10;;;9.00;99.90;;;;;;5060681;28;20229;-83
2022/09/28 05:06:08;;;;;;;1.98;1.00;;;9.10;99.90;;;;;;5055529;28;20234;-83
2022/09/28 05:08:35;;;;;;;0.80;0.70;;;9.00;99.90;;;;;;5059902;28;20202;-83
2022/09/28 05:11:04;;;;;;;1.20;0.75;;;9.00;99.90;;;;;;5060381;28;20200;-83
2022/09/28 05:13:31;;;;;;;1.48;0.80;;;9.00;99.90;;;;;;5061048;28;20202;-83
2022/09/28 05:16:00;;;;;;;2.33;1.13;;;9.00;99.90;;;;;;5061407;28;20663;-83
2022/09/28 05:18:26;;;;;;;1.63;1.02;;;9.00;99.90;;;;;;5060531;28;20204;-83
2022/09/28 05:20:53;;;;;;;1.03;0.93;;;9.00;99.90;;;;;;5060762;28;20202;-83
2022/09/28 05:23:20;;;;;;;0.88;0.88;;;9.00;99.90;;;;;;5060111;28;20497;-83
2022/09/28 05:25:46;;;;;;;0.90;0.90;;;9.00;99.90;;;;;;5061119;28;20227;-83
2022/09/28 05:28:13;;;;;;;1.63;1.30;;;9.00;99.90;;;;;;5059674;28;20209;-83
2022/09/28 05:30:40;;;;;;;1.42;1.27;;;9.00;99.90;;;;;;5045453;28;20215;-83
2022/09/28 05:33:08;;;;;;;2.60;1.23;;;8.90;99.90;;;;;;5040225;28;20211;-81
2022/09/28 05:35:36;;;;;;;1.45;1.35;;;8.90;99.90;;;;;;5039933;28;20294;-83
2022/09/28 05:38:04;;;;;;;1.30;1.20;;;8.90;99.90;;;;;;5040415;28;20212;-83
2022/09/28 05:40:31;;;;;;;3.25;1.70;;;9.00;99.90;;;;;;5040666;28;20220;-82
2022/09/28 05:43:00;;;;;;;2.08;1.70;;;9.10;99.90;;;;;;5040617;28;20604;-83
2022/09/28 05:45:27;;;;;;;2.30;1.98;;;9.10;99.90;;;;;;5050051;28;20222;-83
2022/09/28 05:47:54;;;;;;;2.35;1.58;;;9.10;99.90;;;;;;5059470;28;20221;-83
2022/09/28 05:50:22;;;;;;;1.30;1.20;;;9.10;99.90;;;;;;5059349;28;20202;-82
2022/09/28 05:52:58;;;;;;;3.78;1.10;;;9.00;99.90;;;;;;5060584;28;20204;-82
2022/09/28 05:55:25;;;;;;;2.38;1.35;;;9.10;99.90;;;;;;5062036;28;20229;-84
2022/09/28 05:57:51;;;;;;;2.28;1.23;;;9.00;99.90;;;;;;5061106;28;20206;-82
2022/09/28 06:00:18;;;;;;;1.45;1.35;;;9.10;99.90;;;;;;5060902;28;20212;-83
2022/09/28 06:02:54;;;;;;;1.80;1.70;;;9.10;99.90;;;;;;5059930;28;20226;-84
2022/09/28 06:05:23;;;;;;;1.77;1.50;;;9.20;99.90;;;;;;5067513;28;20230;-84
2022/09/28 06:07:50;;;;;;;1.65;1.55;;;9.20;99.90;;;;;;5069161;28;20202;-84
2022/09/28 06:10:17;;;;;;;1.65;1.40;;;9.20;99.90;;;;;;5059703;28;20279;-85
2022/09/28 06:12:45;;;;;;;1.55;1.45;;;9.20;99.90;;;;;;5068254;28;20222;-84
2022/09/28 06:15:13;;;;;;;1.70;1.27;;;9.20;99.90;;;;;;5069970;28;20218;-85
2022/09/28 06:17:40;;;;;;;4.53;1.63;;;9.20;99.90;;;;;;5070457;28;20347;-85
2022/09/28 06:20:13;;;;;;;3.53;1.50;;;9.20;99.90;;;;;;5059738;28;20212;-85
2022/09/28 06:22:42;;;;;;;6.25;1.80;;;9.20;99.90;;;;;;5064577;28;20228;-85
2022/09/28 06:25:09;;;;;;;2.40;2.20;;;9.20;99.90;;;;;;5062335;28;20220;-85
2022/09/28 06:27:36;;;;;;;2.10;1.88;;;9.20;99.90;;;;;;5062753;28;20578;-85
2022/09/28 06:30:03;;;;;;;1.85;1.75;;;9.20;99.90;;;;;;5060865;28;20218;-85
2022/09/28 06:32:30;;;;;;;2.17;1.98;;;9.20;99.90;;;;;;5060938;28;20212;-85
2022/09/28 06:34:57;;;;;;;2.17;1.50;;;9.20;99.90;;;;;;5059258;28;20215;-85
2022/09/28 06:37:24;;;;;;;3.10;1.50;;;9.20;99.90;;;;;;5056626;28;20198;-85
2022/09/28 06:39:53;;;;;;;5.13;4.28;;;9.20;99.90;;;;;;5058931;28;20193;-83
2022/09/28 06:42:20;;;;;;;2.70;1.83;;;9.20;99.90;;;;;;5054908;28;20227;-84
2022/09/28 06:44:47;;;;;;;2.17;1.98;;;9.20;99.90;;;;;;5056482;28;20205;-83
2022/09/28 06:47:15;;;;;;;3.00;2.22;;;9.30;99.90;;;;;;5060208;28;20213;-84
2022/09/28 06:49:41;;;;;;;2.60;2.33;;;9.30;99.90;;;;;;5063224;28;20230;-85
2022/09/28 06:52:08;;;;;;;3.67;2.42;;;9.30;99.90;;;;;;5059277;28;20204;-84
2022/09/28 06:54:35;;;;;;;4.28;3.10;;;9.40;99.90;;;;;;5064169;28;20194;-86
2022/09/28 06:57:03;;;;;;;1.90;1.80;;;9.60;99.90;;;;;;5071940;28;20226;-85
2022/09/28 06:59:30;;;;;;;5.95;2.60;;;9.60;99.90;;;;;;5070520;28;20246;-84
2022/09/28 07:01:58;;;;;;;2.50;2.30;;;9.60;99.90;;;;;;5069641;28;20213;-85
2022/09/28 07:04:25;;;;;;;2.60;2.30;;;9.60;99.90;;;;;;5071320;28;20204;-86
2022/09/28 07:06:53;;;;;;;2.70;2.20;;;9.70;99.90;;;;;;5070652;22;20715;-85
2022/09/28 07:09:48;;;;;;;2.05;1.67;;;9.70;99.90;;;;;;5053629;28;20214;-85
2022/09/28 07:12:16;;;;;;;3.83;2.80;;;9.70;99.90;;;;;;5053938;28;20210;-85
2022/09/28 07:14:45;;;;;;;3.65;2.42;;;9.70;99.90;;;;;;5054689;28;20205;-86
2022/09/28 07:17:11;;;;;;;3.53;2.60;;;9.70;99.90;;;;;;5057186;28;20229;-83
2022/09/28 07:19:38;;;;;;;2.55;2.00;;;9.60;99.90;;;;;;5056533;28;20828;-85
2022/09/28 07:22:05;;;;;;;5.38;2.88;;;9.70;99.90;;;;;;5056428;28;20298;-84
2022/09/28 07:24:31;;;;;;;4.93;2.58;;;9.60;99.90;;;;;;5062876;28;20230;-84
2022/09/28 07:26:58;;;;;;;2.83;2.63;;;9.70;99.90;;;;;;5060534;28;20229;-85
2022/09/28 07:29:27;;;;;;;2.90;2.70;;;9.70;99.90;;;;;;5059971;28;20454;-84
2022/09/28 07:31:54;;;;;;;2.40;2.20;;;9.80;99.90;;;;;;5064747;28;20450;-86
2022/09/28 07:34:21;;;;;;;2.60;2.03;;;9.90;99.90;;;;;;5063967;28;20207;-85
2022/09/28 07:36:48;;;;;;;6.50;2.00;;;9.90;99.90;;;;;;5063797;28;20496;-85
2022/09/28 07:39:15;;;;;;;3.38;2.47;;;9.90;99.90;;;;;;5064419;28;20454;-85
2022/09/28 07:41:43;;;;;;;7.17;2.57;;;9.90;99.90;;;;;;5064047;28;20203;-85
2022/09/28 07:44:10;;;;;;;3.23;2.43;;;10.00;99.90;;;;;;5063836;28;20488;-85
2022/09/28 07:46:38;;;;;;;2.00;1.90;;;9.90;99.90;;;;;;5058829;28;20466;-85
2022/09/28 07:49:05;;;;;;;2.73;2.53;;;9.90;99.90;;;;;;5062544;28;20453;-85
2022/09/28 07:51:32;;;;;;;2.60;2.40;;;10.00;99.90;;;;;;5064682;28;20524;-85
2022/09/28 07:53:59;;;;;;;2.47;2.27;;;10.00;99.90;;;;;;5064129;28;20460;-86
2022/09/28 07:56:26;;;;;;;3.40;3.10;;;10.10;99.90;;;;;;5064090;28;20568;-85
2022/09/28 07:58:53;;;;;;;2.58;2.25;;;10.10;99.90;;;;;;5065968;28;20458;-85
2022/09/28 08:01:20;;;;;;;2.63;1.80;;;10.20;99.90;;;;;;5068452;28;20582;-85
2022/09/28 08:03:48;;;;;;;2.83;2.47;;;10.30;99.90;;;;;;5067075;28;20227;-85
2022/09/28 08:06:17;;;;;;;1.75;1.60;;;10.40;99.90;;;;;;5067983;28;20546;-85
2022/09/28 08:08:44;;;;;;;1.93;1.70;;;10.30;99.90;;;;;;5068103;28;20267;-85
2022/09/28 08:11:13;;;;;;;1.83;1.73;;;10.20;99.90;;;;;;5067742;28;20453;-86
2022/09/28 08:13:40;;;;;;;2.70;1.67;;;10.20;99.90;;;;;;5066929;28;20509;-85
2022/09/28 08:16:07;;;;;;;1.60;1.50;;;10.30;99.90;;;;;;5066814;28;20224;-85
2022/09/28 08:18:34;;;;;;;2.85;2.30;;;10.40;99.90;;;;;;5074889;28;20890;-86
2022/09/28 08:23:48;;;;;;;2.07;1.80;;;10.60;99.90;;;;;;5066034;28;20215;-86
2022/09/28 08:26:14;;;;;;;3.63;2.00;;;10.50;99.90;;;;;;5065202;28;20482;-86
2022/09/28 08:28:42;;;;;;;4.93;2.47;;;10.50;99.90;;;;;;5064265;28;20537;-86
2022/09/28 08:31:09;;;;;;;2.77;2.57;;;10.40;99.90;;;;;;5063942;28;20503;-86
2022/09/28 08:33:35;;;;;;;1.60;1.50;;;10.40;99.90;;;;;;5064109;28;20447;-86
2022/09/28 08:36:04;;;;;;;3.10;1.80;;;10.40;99.90;;;;;;5063712;28;20472;-85
2022/09/28 08:38:32;;;;;;;2.63;2.53;;;10.40;99.90;;;;;;5062613;28;20451;-86
2022/09/28 08:41:06;;;;;;;4.03;2.10;;;10.50;99.90;;;;;;5062051;28;20454;-86
2022/09/28 08:44:01;;;;;;;3.90;2.63;;;10.60;99.90;;;;;;5061545;28;20530;-86
2022/09/28 08:46:34;;;;;;;2.30;2.10;;;10.70;99.90;;;;;;5051732;28;20570;-86
2022/09/28 08:49:08;;;;;;;3.30;1.80;;;10.80;99.90;;;;;;5060342;28;20434;-86
2022/09/28 08:51:42;;;;;;;1.80;1.53;;;10.70;99.90;;;;;;5060967;28;20445;-86
2022/09/28 08:54:24;;;;;;;3.67;2.30;;;10.70;99.90;;;;;;5060123;28;20496;-86
2022/09/28 08:56:54;;;;;;;2.70;2.00;;;10.80;99.90;;;;;;5059548;28;20556;-86
2022/09/28 08:59:24;;;;;;;2.40;2.20;;;10.80;99.90;;;;;;5058733;28;20434;-87
2022/09/28 09:01:58;;;;;;;2.03;1.63;;;10.80;99.90;;;;;;5058875;28;20448;-86
2022/09/28 09:04:25;;;;;;;2.53;2.00;;;10.90;99.90;;;;;;5058111;28;21021;-86
2022/09/28 09:07:07;;;;;;;2.50;1.93;;;10.90;99.90;;;;;;5056944;28;20471;-86
2022/09/28 09:09:45;;;;;;;4.87;2.30;;;11.10;99.90;;;;;;5055935;28;20440;-86
2022/09/28 09:12:21;;;;;;;2.27;2.03;;;11.20;99.90;;;;;;5070885;28;20450;-87
2022/09/28 09:15:21;;;;;;;3.30;2.30;;;11.30;99.90;;;;;;5057255;28;20935;-86
2022/09/28 09:18:02;;;;;;;3.73;1.63;;;11.30;99.90;;;;;;5056082;28;20443;-87
2022/09/28 09:20:38;;;;;;;2.47;2.10;;;11.30;99.90;;;;;;5055923;28;20530;-86
2022/09/28 09:23:14;;;;;;;4.93;2.67;;;11.40;99.90;;;;;;5055346;28;20483;-87
2022/09/28 09:25:45;;;;;;;2.90;2.70;;;11.40;99.90;;;;;;5055147;28;20463;-87
2022/09/28 09:28:49;;;;;;;2.70;2.50;;;11.40;99.90;;;;;;5055638;28;20494;-87
2022/09/28 09:31:34;;;;;;;3.40;2.73;;;11.40;99.90;;;;;;5054732;28;20420;-87
2022/09/28 09:34:30;;;;;;;2.57;2.40;;;11.30;99.90;;;;;;5054569;28;20473;-87
2022/09/28 09:37:15;;;;;;;2.73;2.33;;;11.20;99.90;;;;;;5029357;28;20865;-87
2022/09/28 09:40:09;;;;;;;3.03;2.73;;;11.20;99.90;;;;;;5054233;28;20483;-87
2022/09/28 09:43:01;;;;;;;3.50;2.50;;;11.20;99.90;;;;;;5054403;28;20509;-86
2022/09/28 09:45:41;;;;;;;2.77;2.57;;;11.10;99.90;;;;;;5054217;28;20578;-87
2022/09/28 09:48:24;;;;;;;3.23;2.97;;;11.00;99.90;;;;;;5053980;28;20519;-87
2022/09/28 09:51:00;;;;;;;2.17;1.97;;;10.90;99.90;;;;;;5054130;28;20520;-87
2022/09/28 09:53:39;;;;;;;3.90;2.17;;;10.90;99.90;;;;;;5054061;28;20461;-87
2022/09/28 09:56:13;;;;;;;3.40;2.70;;;11.10;99.90;;;;;;5053913;28;20563;-87
2022/09/28 09:58:46;;;;;;;2.60;2.40;;;11.10;99.90;;;;;;5054315;28;20443;-86
2022/09/28 10:01:18;;;;;;;2.90;2.40;;;11.20;99.90;;;;;;5055682;28;20951;-87
2022/09/28 10:03:48;;;;;;;3.47;2.50;;;11.20;99.90;;;;;;5057098;28;20522;-87
2022/09/28 10:06:18;;;;;;;4.87;2.60;;;11.30;99.90;;;;;;5072115;28;20490;-87
2022/09/28 10:08:50;;;;;;;2.33;2.13;;;11.30;99.90;;;;;;5054748;28;20436;-86
2022/09/28 10:11:22;;;;;;;3.53;3.10;;;11.50;99.90;;;;;;5053696;28;20437;-87
2022/09/28 10:13:49;;;;;;;2.50;2.30;;;11.70;99.90;;;;;;5066304;28;20868;-87
2022/09/28 10:16:17;;;;;;;2.57;2.37;;;11.80;99.90;;;;;;5059036;28;20464;-86
2022/09/28 10:18:45;;;;;;;2.50;2.30;;;11.90;99.90;;;;;;5057034;28;20461;-86
2022/09/28 10:21:13;;;;;;;6.20;2.53;;;12.00;99.90;;;;;;5057740;28;20542;-86
2022/09/28 10:23:41;;;;;;;2.97;2.10;;;12.10;99.90;;;;;;5057823;28;20490;-86
2022/09/28 10:26:15;;;;;;;2.30;1.77;;;12.10;99.90;;;;;;5057956;28;20472;-86
2022/09/28 10:28:49;;;;;;;2.37;2.17;;;12.20;99.90;;;;;;5061358;28;20448;-86
2022/09/28 10:31:37;;;;;;;2.10;2.00;;;12.10;99.90;;;;;;5061048;28;20905;-86
2022/09/28 10:34:05;;;;;;;3.90;1.80;;;12.10;99.90;;;;;;5064082;28;20876;-86
2022/09/28 10:36:37;;;;;;;2.30;1.67;;;12.20;99.90;;;;;;5062158;28;21011;-86
2022/09/28 10:39:04;;;;;;;3.20;1.90;;;12.20;99.90;;;;;;5060740;28;20594;-86
2022/09/28 10:41:31;;;;;;;2.30;1.93;;;12.30;99.90;;;;;;5063690;28;20454;-86
2022/09/28 10:44:07;;;;;;;2.37;2.17;;;12.30;99.90;;;;;;5064511;28;20484;-86
2022/09/28 10:46:35;;;;;;;3.70;2.33;;;12.40;99.90;;;;;;5065757;28;20471;-86
2022/09/28 10:49:04;;;;;;;4.77;2.70;;;12.40;99.90;;;;;;5066221;28;20460;-86
2022/09/28 10:51:41;;;;;;;2.67;2.17;;;12.40;99.90;;;;;;5059825;28;20792;-86
2022/09/28 10:54:15;;;;;;;1.73;1.57;;;12.50;99.90;;;;;;5059375;28;20809;-86
2022/09/28 10:56:42;;;;;;;3.93;2.00;;;12.50;99.90;;;;;;5058458;28;20478;-87
2022/09/28 10:59:35;;;;;;;2.43;1.90;;;12.50;99.90;;;;;;5061123;28;20462;-87
2022/09/28 11:02:09;;;;;;;2.83;1.43;;;12.60;99.90;;;;;;5062585;28;20430;-86
2022/09/28 11:04:41;;;;;;;2.80;2.23;;;12.70;99.90;;;;;;5058051;28;20472;-87
2022/09/28 11:07:18;;;;;;;3.20;2.30;;;13.00;99.90;;;;;;5056199;28;20472;-86
2022/09/28 11:09:47;;;;;;;2.50;2.30;;;13.20;99.90;;;;;;5055521;28;20458;-87
2022/09/28 11:12:43;;;;;;;5.10;1.97;;;13.40;99.90;;;;;;5054148;28;20451;-87
2022/09/28 11:15:27;;;;;;;2.80;2.57;;;13.40;99.90;;;;;;5052993;28;20518;-87
2022/09/28 11:18:49;;;;;;;2.87;2.50;;;13.60;99.90;;;;;;5053057;28;20452;-87
2022/09/28 11:21:27;;;;;;;2.17;1.97;;;13.70;99.90;;;;;;5031807;28;20507;-87
2022/09/28 11:24:23;;;;;;;2.40;1.80;;;13.70;99.90;;;;;;5053220;28;20476;-87
2022/09/28 11:26:55;;;;;;;2.67;2.00;;;13.70;99.90;;;;;;5053604;28;20573;-87
2022/09/28 11:29:26;;;;;;;1.40;1.30;;;13.60;99.90;;;;;;5054440;28;20958;-86
2022/09/28 11:32:02;;;;;;;1.53;1.37;;;13.50;99.90;;;;;;5053654;28;20436;-86
2022/09/28 11:34:35;;;;;;;1.80;1.70;;;13.40;99.90;;;;;;5053404;28;20456;-86
2022/09/28 11:37:26;;;;;;;2.17;1.97;;;13.30;99.90;;;;;;5055842;28;20463;-86
2022/09/28 11:40:04;;;;;;;2.67;2.10;;;13.20;99.90;;;;;;5055829;28;20456;-86
2022/09/28 11:42:41;;;;;;;2.10;1.70;;;13.10;99.90;;;;;;5054585;28;20436;-86
2022/09/28 11:45:24;;;;;;;2.90;1.30;;;13.00;99.90;;;;;;5055657;28;20499;-86
2022/09/28 11:47:57;;;;;;;1.40;1.30;;;13.00;99.90;;;;;;5053333;28;20448;-86
2022/09/28 11:50:30;;;;;;;3.20;2.10;;;13.10;99.90;;;;;;5054232;28;20922;-86
2022/09/28 11:53:08;;;;;;;2.10;1.70;;;13.40;99.90;;;;;;5053650;28;20479;-86
2022/09/28 11:55:40;;;;;;;1.83;1.73;;;13.60;99.90;;;;;;5069550;28;20525;-86
2022/09/28 11:58:12;;;;;;;1.80;1.13;;;13.80;99.90;;;;;;5062426;28;20451;-86
2022/09/28 12:00:46;;;;;;;2.40;1.80;;;13.90;99.90;;;;;;5061257;28;20482;-86
2022/09/28 12:03:19;;;;;;;4.10;1.60;;;14.00;99.90;;;;;;5056673;28;20458;-86
2022/09/28 12:05:51;;;;;;;1.60;1.50;;;14.00;99.90;;;;;;5056863;28;20488;-86
2022/09/28 12:08:24;;;;;;;1.80;1.20;;;13.80;99.90;;;;;;5055003;28;20440;-86
2022/09/28 12:10:57;;;;;;;1.87;1.30;;;13.80;99.90;;;;;;5053642;28;20764;-86
2022/09/28 12:13:27;;;;;;;1.63;1.33;;;13.80;99.90;;;;;;5053831;28;20436;-86
2022/09/28 12:15:59;;;;;;;1.87;1.77;;;13.80;99.90;;;;;;5053844;28;20472;-86
2022/09/28 12:18:36;;;;;;;2.77;1.50;;;14.00;99.90;;;;;;5053421;28;20455;-86
2022/09/28 12:21:17;;;;;;;1.43;1.33;;;14.00;99.90;;;;;;5053725;28;20448;-86
2022/09/28 12:23:46;;;;;;;1.37;1.27;;;14.00;99.90;;;;;;5053166;28;20472;-87
2022/09/28 12:26:25;;;;;;;1.20;1.13;;;14.10;99.90;;;;;;5053361;28;20476;-87
2022/09/28 12:28:57;;;;;;;2.90;2.27;;;14.20;99.90;;;;;;5052848;28;20443;-87
2022/09/28 12:31:32;;;;;;;2.10;1.10;;;14.30;99.90;;;;;;5055324;28;20490;-86
2022/09/28 12:34:02;;;;;;;4.47;1.43;;;14.30;99.90;;;;;;5052355;28;20457;-86
2022/09/28 12:36:44;;;;;;;1.67;0.97;;;14.20;99.90;;;;;;5053988;28;20538;-87
2022/09/28 12:39:34;;;;;;;4.00;1.30;;;14.10;99.90;;;;;;5053062;28;20789;-86
2022/09/28 12:42:19;;;;;;;2.37;2.17;;;13.90;99.90;;;;;;5052526;28;20454;-87
2022/09/28 12:45:17;;;;;;;1.57;1.47;;;13.80;99.90;;;;;;5053180;28;20472;-87
2022/09/28 12:48:12;;;;;;;2.73;1.70;;;13.80;99.90;;;;;;5054851;28;20453;-87
2022/09/28 12:51:18;;;;;;;5.13;1.40;;;13.90;99.90;;;;;;5055149;28;20465;-87
2022/09/28 12:54:06;;;;;;;1.67;1.57;;;14.00;99.90;;;;;;5054977;28;20908;-87
2022/09/28 12:56:41;;;;;;;3.90;1.43;;;13.90;99.90;;;;;;5056689;28;20883;-87
2022/09/28 12:59:20;;;;;;;5.27;2.00;;;13.60;99.90;;;;;;5054919;28;20432;-87
2022/09/28 13:02:18;;;;;;;2.00;1.90;;;13.60;99.90;;;;;;5055278;28;20451;-87
2022/09/28 13:05:08;;;;;;;1.97;1.27;;;13.50;99.90;;;;;;5054151;28;20489;-87
2022/09/28 13:07:48;;;;;;;1.50;1.40;;;13.60;99.90;;;;;;5067204;22;20503;-81
2022/09/28 13:10:20;;;;;;;1.60;1.40;;;13.70;99.90;;;;;;5041186;28;20977;-81
2022/09/28 13:12:59;;;;;;;2.60;1.23;;;13.60;99.90;;;;;;5041275;28;20545;-81
2022/09/28 13:15:43;;;;;;;2.47;2.27;;;13.70;99.90;;;;;;5041834;28;20651;-81
2022/09/28 13:18:19;;;;;;;1.50;1.40;;;14.00;99.90;;;;;;5042493;28;20449;-79